createdAt,value
2022-10-15T00:00:09.743Z,83.33
2022-10-15T00:02:40.170Z,83.35
2022-10-15T00:05:10.769Z,83.60
2022-10-15T00:07:41.651Z,83.51
2022-10-15T00:10:12.156Z,84.03
2022-10-15T00:12:43.043Z,84.45
2022-10-15T00:15:13.999Z,84.31
2022-10-15T00:17:44.434Z,85.00
2022-10-15T00:20:15.444Z,85.63
2022-10-15T00:22:46.145Z,86.12
2022-10-15T00:25:16.579Z,87.36
2022-10-15T00:27:46.997Z,87.92
2022-10-15T00:30:17.460Z,88.14
2022-10-15T00:32:47.803Z,88.47
2022-10-15T00:35:18.680Z,88.61
2022-10-15T00:37:49.111Z,88.64
2022-10-15T00:40:20.159Z,88.88
2022-10-15T00:42:50.572Z,88.94
2022-10-15T00:45:21.029Z,89.10
2022-10-15T00:47:53.178Z,89.19
2022-10-15T00:50:26.385Z,89.28
2022-10-15T00:53:02.783Z,89.33
2022-10-15T00:55:39.635Z,89.25
2022-10-15T00:58:15.587Z,89.33
2022-10-15T01:00:46.107Z,89.29
2022-10-15T01:03:17.054Z,89.33
2022-10-15T01:05:50.159Z,89.32
2022-10-15T01:08:20.760Z,89.23
2022-10-15T01:11:16.257Z,89.27
2022-10-15T01:14:05.074Z,89.11
2022-10-15T01:16:38.640Z,89.20
2022-10-15T01:19:24.402Z,89.36
2022-10-15T01:22:06.973Z,89.41
2022-10-15T01:24:52.436Z,89.39
2022-10-15T01:27:31.581Z,89.58
2022-10-15T01:30:08.001Z,89.59
2022-10-15T01:32:41.458Z,89.56
2022-10-15T01:35:23.911Z,89.64
2022-10-15T01:37:57.357Z,89.64
2022-10-15T01:40:39.650Z,89.65
2022-10-15T01:43:19.095Z,89.65
2022-10-15T01:45:52.674Z,89.70
2022-10-15T01:48:25.493Z,89.79
2022-10-15T01:50:58.969Z,89.94
2022-10-15T01:53:33.455Z,89.99
2022-10-15T01:56:07.124Z,89.93
2022-10-15T01:58:40.935Z,89.96
2022-10-15T02:01:11.441Z,89.95
2022-10-15T02:03:48.216Z,89.95
2022-10-15T02:06:24.339Z,89.91
2022-10-15T02:09:00.281Z,89.91
2022-10-15T02:11:32.449Z,89.88
2022-10-15T02:14:05.828Z,89.93
2022-10-15T02:16:48.110Z,89.95
2022-10-15T02:19:27.284Z,89.99
2022-10-15T02:22:03.371Z,89.95
2022-10-15T02:24:36.822Z,89.99
2022-10-15T02:27:09.776Z,90.00
2022-10-15T02:29:42.239Z,89.96
2022-10-15T02:32:14.176Z,89.92
2022-10-15T02:34:47.183Z,89.92
2022-10-15T02:37:20.670Z,89.93
2022-10-15T02:39:51.137Z,89.84
2022-10-15T02:42:22.268Z,89.77
2022-10-15T02:44:53.055Z,89.73
2022-10-15T02:49:53.947Z,89.75
2022-10-15T02:52:24.574Z,89.77
2022-10-15T02:54:55.252Z,89.79
2022-10-15T02:57:25.887Z,89.77
2022-10-15T02:59:56.578Z,89.77
2022-10-15T03:02:27.063Z,89.69
2022-10-15T03:04:57.459Z,89.77
2022-10-15T03:07:28.039Z,89.78
2022-10-15T03:09:58.444Z,89.74
2022-10-15T03:12:28.977Z,89.69
2022-10-15T03:14:59.373Z,89.65
2022-10-15T03:17:29.862Z,89.72
2022-10-15T03:20:00.238Z,89.68
2022-10-15T03:22:30.578Z,89.77
2022-10-15T03:25:00.984Z,89.73
2022-10-15T03:27:31.435Z,89.69
2022-10-15T03:30:01.815Z,89.76
2022-10-15T03:32:35.513Z,89.89
2022-10-15T03:35:04.959Z,89.92
2022-10-15T03:37:35.425Z,89.93
2022-10-15T03:40:10.547Z,89.85
2022-10-15T03:42:38.656Z,89.81
2022-10-15T03:45:10.248Z,89.77
2022-10-15T03:47:40.627Z,89.81
2022-10-15T03:50:11.018Z,89.80
2022-10-15T03:52:41.781Z,89.88
2022-10-15T03:55:13.123Z,89.88
2022-10-15T03:57:43.668Z,89.90
2022-10-15T04:00:15.190Z,89.92
2022-10-15T04:02:45.588Z,89.93
2022-10-15T04:05:16.033Z,89.92
2022-10-15T04:07:46.374Z,89.89
2022-10-15T04:10:16.749Z,89.88
2022-10-15T04:12:47.127Z,89.84
2022-10-15T04:15:17.614Z,89.87
2022-10-15T04:17:48.173Z,89.81
2022-10-15T04:20:18.628Z,89.82
2022-10-15T04:22:49.073Z,89.76
2022-10-15T04:25:19.450Z,89.81
2022-10-15T04:27:49.769Z,89.83
2022-10-15T04:30:20.345Z,89.84
2022-10-15T04:32:53.050Z,89.83
2022-10-15T04:35:23.431Z,89.80
2022-10-15T04:37:53.767Z,89.79
2022-10-15T04:40:24.255Z,89.89
2022-10-15T04:42:54.613Z,89.87
2022-10-15T04:45:24.932Z,89.85
2022-10-15T04:47:55.537Z,89.77
2022-10-15T04:50:25.918Z,89.74
2022-10-15T04:52:56.308Z,89.68
2022-10-15T04:55:26.704Z,89.61
2022-10-15T04:57:57.202Z,89.61
2022-10-15T05:00:27.697Z,89.55
2022-10-15T05:03:00.852Z,89.45
2022-10-15T05:05:31.235Z,89.48
2022-10-15T05:08:02.984Z,89.32
2022-10-15T05:10:33.283Z,89.35
2022-10-15T05:13:03.718Z,89.36
2022-10-15T05:15:34.128Z,89.35
2022-10-15T05:18:04.522Z,89.43
2022-10-15T05:20:35.078Z,89.42
2022-10-15T05:23:06.293Z,89.35
2022-10-15T05:25:36.673Z,89.27
2022-10-15T05:28:06.997Z,89.29
2022-10-15T05:30:37.380Z,89.37
2022-10-15T05:33:07.665Z,89.44
2022-10-15T05:35:38.425Z,89.61
2022-10-15T05:38:08.787Z,89.71
2022-10-15T05:40:39.261Z,89.78
2022-10-15T05:43:09.604Z,89.83
2022-10-15T05:45:40.083Z,89.87
2022-10-15T05:48:10.504Z,89.87
2022-10-15T05:50:40.902Z,89.79
2022-10-15T05:53:11.327Z,89.78
2022-10-15T05:55:41.903Z,89.84
2022-10-15T05:58:12.330Z,89.79
2022-10-15T06:00:42.737Z,89.72
2022-10-15T06:03:14.924Z,89.72
2022-10-15T06:05:45.308Z,89.67
2022-10-15T06:08:16.015Z,89.65
2022-10-15T06:10:46.391Z,89.68
2022-10-15T06:13:17.693Z,89.68
2022-10-15T06:15:48.078Z,89.77
2022-10-15T06:18:18.413Z,89.81
2022-10-15T06:20:55.013Z,89.78
2022-10-15T06:23:25.524Z,89.79
2022-10-15T06:25:56.189Z,89.81
2022-10-15T06:28:26.756Z,89.77
2022-10-15T06:30:59.865Z,89.76
2022-10-15T06:33:31.162Z,89.63
2022-10-15T06:36:06.977Z,89.56
2022-10-15T06:38:39.288Z,89.54
2022-10-15T06:41:09.681Z,89.43
2022-10-15T06:43:40.412Z,89.34
2022-10-15T06:46:11.070Z,89.27
2022-10-15T06:48:41.479Z,89.21
2022-10-15T06:51:12.241Z,89.13
2022-10-15T06:53:43.915Z,89.04
2022-10-15T06:56:14.290Z,88.95
2022-10-15T06:58:44.748Z,88.78
2022-10-15T07:01:15.112Z,88.57
2022-10-15T07:03:45.476Z,88.17
2022-10-15T07:06:15.897Z,88.01
2022-10-15T07:08:46.331Z,87.67
2022-10-15T07:11:16.810Z,87.53
2022-10-15T07:13:47.356Z,87.57
2022-10-15T07:16:17.782Z,87.45
2022-10-15T07:18:49.366Z,87.50
2022-10-15T07:21:19.761Z,87.55
2022-10-15T07:23:50.182Z,87.37
2022-10-15T07:26:20.583Z,87.15
2022-10-15T07:28:50.977Z,87.09
2022-10-15T07:31:21.486Z,86.77
2022-10-15T07:33:51.886Z,86.61
2022-10-15T07:36:22.355Z,86.47
2022-10-15T07:38:52.810Z,85.86
2022-10-15T07:41:23.437Z,86.21
2022-10-15T07:43:53.910Z,85.87
2022-10-15T07:46:24.297Z,85.31
2022-10-15T07:48:54.689Z,85.38
2022-10-15T07:51:25.004Z,85.13
2022-10-15T07:53:56.113Z,84.99
2022-10-15T07:56:26.511Z,84.92
2022-10-15T07:58:56.897Z,84.92
2022-10-15T08:01:27.223Z,84.43
2022-10-15T08:03:58.034Z,83.84
2022-10-15T08:06:28.431Z,84.00
2022-10-15T08:08:59.153Z,83.72
2022-10-15T08:11:29.605Z,83.39
2022-10-15T08:14:00.028Z,82.97
2022-10-15T08:16:30.798Z,83.20
2022-10-15T08:19:01.270Z,83.29
2022-10-15T08:21:31.668Z,82.70
2022-10-15T08:24:02.367Z,82.67
2022-10-15T08:26:32.831Z,82.56
2022-10-15T08:29:03.533Z,82.24
2022-10-15T08:31:34.375Z,81.88
2022-10-15T08:34:04.766Z,81.68
2022-10-15T08:36:35.594Z,81.38
2022-10-15T08:39:07.482Z,81.24
2022-10-15T08:41:43.895Z,80.98
2022-10-15T08:44:26.413Z,81.35
2022-10-15T08:46:59.871Z,80.80
2022-10-15T08:49:48.220Z,79.66
2022-10-15T08:52:44.807Z,80.25
2022-10-15T08:55:18.135Z,80.21
2022-10-15T08:58:07.970Z,80.07
2022-10-15T09:00:56.569Z,79.42
2022-10-15T09:03:41.869Z,79.07
2022-10-15T09:06:15.336Z,77.73
2022-10-15T09:09:22.507Z,77.65
2022-10-15T09:11:55.906Z,77.06
2022-10-15T09:14:32.359Z,76.43
2022-10-15T09:17:21.752Z,76.45
2022-10-15T09:19:58.011Z,76.63
2022-10-15T09:22:31.096Z,76.75
2022-10-15T09:25:03.807Z,76.81
2022-10-15T09:27:39.721Z,77.57
2022-10-15T09:30:37.713Z,77.99
2022-10-15T09:33:13.974Z,77.80
2022-10-15T09:35:56.586Z,77.56
2022-10-15T09:38:41.348Z,76.39
2022-10-15T09:41:16.597Z,76.10
2022-10-15T09:43:50.478Z,75.27
2022-10-15T09:46:20.940Z,74.74
2022-10-15T09:49:05.826Z,73.84
2022-10-15T09:52:03.275Z,73.66
2022-10-15T09:54:51.795Z,73.52
2022-10-15T09:57:24.601Z,72.79
2022-10-15T10:00:03.722Z,72.55
2022-10-15T10:02:34.186Z,71.63
2022-10-15T10:05:33.663Z,71.19
2022-10-15T10:08:13.071Z,70.21
2022-10-15T10:10:46.089Z,70.31
2022-10-15T10:13:28.194Z,69.96
2022-10-15T10:16:05.336Z,70.43
2022-10-15T10:18:37.649Z,70.81
2022-10-15T10:21:22.927Z,72.11
2022-10-15T10:23:53.481Z,72.04
2022-10-15T10:26:24.055Z,72.07
2022-10-15T10:29:05.031Z,72.27
2022-10-15T10:31:36.890Z,71.26
2022-10-15T10:34:07.276Z,70.70
2022-10-15T10:36:40.668Z,71.13
2022-10-15T10:39:15.629Z,72.20
2022-10-15T10:41:55.010Z,72.89
2022-10-15T10:44:34.212Z,72.96
2022-10-15T10:47:10.425Z,72.70
2022-10-15T10:49:46.999Z,72.21
2022-10-15T10:52:28.692Z,72.12
2022-10-15T10:58:00.860Z,71.59
2022-10-15T11:00:43.393Z,70.42
2022-10-15T11:03:28.631Z,70.35
2022-10-15T11:06:14.348Z,70.46
2022-10-15T11:09:05.757Z,70.13
2022-10-15T11:11:41.912Z,69.02
2022-10-15T11:14:30.424Z,68.92
2022-10-15T11:17:15.684Z,69.55
2022-10-15T11:20:26.852Z,70.34
2022-10-15T11:22:51.018Z,71.39
2022-10-15T11:25:36.561Z,72.18
2022-10-15T11:28:26.523Z,72.16
2022-10-15T11:31:08.315Z,71.99
2022-10-15T11:33:50.286Z,71.35
2022-10-15T11:36:26.197Z,71.06
2022-10-15T11:39:15.827Z,71.50
2022-10-15T11:41:55.216Z,71.64
2022-10-15T11:44:31.456Z,71.66
2022-10-15T11:47:23.028Z,69.46
2022-10-15T11:50:14.898Z,69.05
2022-10-15T11:53:20.410Z,69.63
2022-10-15T11:56:09.074Z,71.09
2022-10-15T12:01:38.694Z,72.24
2022-10-15T12:04:20.917Z,72.61
2022-10-15T12:06:54.566Z,72.96
2022-10-15T12:09:28.010Z,72.47
2022-10-15T12:12:10.915Z,72.60
2022-10-15T12:14:53.438Z,71.55
2022-10-15T12:17:41.938Z,70.07
2022-10-15T12:20:18.404Z,70.27
2022-10-15T12:22:54.421Z,70.51
2022-10-15T12:25:39.866Z,70.89
2022-10-15T12:28:13.433Z,71.13
2022-10-15T12:30:46.139Z,71.32
2022-10-15T12:33:34.800Z,72.06
2022-10-15T12:36:25.238Z,71.48
2022-10-15T12:39:11.591Z,71.70
2022-10-15T12:41:42.187Z,70.70
2022-10-15T12:44:30.630Z,71.62
2022-10-15T12:47:01.490Z,70.91
2022-10-15T12:49:34.953Z,70.50
2022-10-15T12:52:11.058Z,70.50
2022-10-15T12:54:46.113Z,70.14
2022-10-15T12:57:34.511Z,70.31
2022-10-15T13:00:24.603Z,70.50
2022-10-15T13:03:01.220Z,71.03
2022-10-15T13:05:36.717Z,71.15
2022-10-15T13:08:10.216Z,71.14
2022-10-15T13:10:43.755Z,70.86
2022-10-15T13:13:17.376Z,70.95
2022-10-15T13:16:06.928Z,70.72
2022-10-15T13:18:37.604Z,70.94
2022-10-15T13:21:12.939Z,71.05
2022-10-15T13:23:43.095Z,71.07
2022-10-15T13:26:27.072Z,71.44
2022-10-15T13:29:01.237Z,71.48
2022-10-15T13:31:34.349Z,71.13
2022-10-15T13:34:07.806Z,70.94
2022-10-15T13:36:39.683Z,70.14
2022-10-15T13:39:25.914Z,70.30
2022-10-15T13:42:17.996Z,70.95
2022-10-15T13:45:18.649Z,71.96
2022-10-15T13:47:52.066Z,71.79
2022-10-15T13:50:25.531Z,71.88
2022-10-15T13:53:21.514Z,71.98
2022-10-15T13:55:55.224Z,71.82
2022-10-15T13:58:37.046Z,72.14
2022-10-15T14:01:20.391Z,72.22
2022-10-15T14:03:55.496Z,72.38
2022-10-15T14:06:34.684Z,72.49
2022-10-15T14:09:27.147Z,71.84
2022-10-15T14:12:02.213Z,72.70
2022-10-15T14:14:40.452Z,72.85
2022-10-15T14:17:19.621Z,72.15
2022-10-15T14:20:14.706Z,72.88
2022-10-15T14:22:29.971Z,73.92
2022-10-15T14:25:00.709Z,74.24
2022-10-15T14:27:31.159Z,73.99
2022-10-15T14:30:02.608Z,73.57
2022-10-15T14:32:47.751Z,72.77
2022-10-15T14:35:28.018Z,72.85
2022-10-15T14:38:04.168Z,72.79
2022-10-15T14:40:34.581Z,73.64
2022-10-15T14:43:10.729Z,73.75
2022-10-15T14:45:44.475Z,74.09
2022-10-15T14:48:23.663Z,74.02
2022-10-15T14:50:55.897Z,74.32
2022-10-15T14:53:29.814Z,74.44
2022-10-15T14:56:03.791Z,74.69
2022-10-15T14:58:34.800Z,75.22
2022-10-15T15:01:08.531Z,75.57
2022-10-15T15:03:50.198Z,75.55
2022-10-15T15:06:20.718Z,75.61
2022-10-15T15:08:51.751Z,75.83
2022-10-15T15:11:26.815Z,75.10
2022-10-15T15:13:57.117Z,75.92
2022-10-15T15:16:27.652Z,75.99
2022-10-15T15:18:58.783Z,76.28
2022-10-15T15:21:29.110Z,76.47
2022-10-15T15:24:00.050Z,76.40
2022-10-15T15:26:30.538Z,76.71
2022-10-15T15:29:01.006Z,76.94
2022-10-15T15:31:33.084Z,77.13
2022-10-15T15:34:03.432Z,77.38
2022-10-15T15:36:33.842Z,77.58
2022-10-15T15:39:04.418Z,77.99
2022-10-15T15:41:34.907Z,78.07
2022-10-15T15:44:07.053Z,78.46
2022-10-15T15:46:37.445Z,78.46
2022-10-15T15:49:07.899Z,78.65
2022-10-15T15:51:38.367Z,78.65
2022-10-15T15:54:10.561Z,79.18
2022-10-15T15:56:41.400Z,79.17
2022-10-15T15:59:11.836Z,79.77
2022-10-15T16:01:42.241Z,79.92
2022-10-15T16:04:12.938Z,80.27
2022-10-15T16:06:43.755Z,80.47
2022-10-15T16:09:14.075Z,80.60
2022-10-15T16:11:44.801Z,80.93
2022-10-15T16:14:15.177Z,81.26
2022-10-15T16:16:45.687Z,81.54
2022-10-15T16:19:16.006Z,81.83
2022-10-15T16:21:46.668Z,81.83
2022-10-15T16:24:17.112Z,82.15
2022-10-15T16:26:47.644Z,82.39
2022-10-15T16:29:18.043Z,82.53
2022-10-15T16:31:48.503Z,82.60
2022-10-15T16:34:18.935Z,82.74
2022-10-15T16:36:49.251Z,82.91
2022-10-15T16:39:19.690Z,83.09
2022-10-15T16:41:50.112Z,83.27
2022-10-15T16:44:20.798Z,83.45
2022-10-15T16:46:51.206Z,83.60
2022-10-15T16:49:22.232Z,83.80
2022-10-15T16:51:52.736Z,83.96
2022-10-15T16:54:23.030Z,84.20
2022-10-15T16:56:53.700Z,84.20
2022-10-15T16:59:24.073Z,84.25
2022-10-15T17:01:54.710Z,84.38
2022-10-15T17:04:25.138Z,84.54
2022-10-15T17:06:55.676Z,84.72
2022-10-15T17:09:26.111Z,84.81
2022-10-15T17:11:56.525Z,84.64
2022-10-15T17:14:26.911Z,84.76
2022-10-15T17:16:57.358Z,84.98
2022-10-15T17:19:30.581Z,85.08
2022-10-15T17:21:59.910Z,84.90
2022-10-15T17:24:30.268Z,85.25
2022-10-15T17:27:00.766Z,85.39
2022-10-15T17:29:33.409Z,85.39
2022-10-15T17:32:03.498Z,85.35
2022-10-15T17:34:34.327Z,85.48
2022-10-15T17:37:05.157Z,85.56
2022-10-15T17:39:35.580Z,85.66
2022-10-15T17:42:06.115Z,85.79
2022-10-15T17:44:36.622Z,85.79
2022-10-15T17:47:08.680Z,85.92
2022-10-15T17:49:39.108Z,86.05
2022-10-15T17:52:10.081Z,86.13
2022-10-15T17:54:40.477Z,86.18
2022-10-15T17:57:10.861Z,85.96
2022-10-15T17:59:41.269Z,86.00
2022-10-15T18:02:11.723Z,86.04
2022-10-15T18:04:42.133Z,86.01
2022-10-15T18:07:14.221Z,85.99
2022-10-15T18:09:45.759Z,86.12
2022-10-15T18:12:16.283Z,86.02
2022-10-15T18:14:46.782Z,85.99
2022-10-15T18:17:18.865Z,86.06
2022-10-15T18:19:49.275Z,86.19
2022-10-15T18:22:20.458Z,86.00
2022-10-15T18:24:51.579Z,86.05
2022-10-15T18:27:22.021Z,86.04
2022-10-15T18:29:52.378Z,85.98
2022-10-15T18:32:22.815Z,85.96
2022-10-15T18:34:54.820Z,85.89
2022-10-15T18:37:25.909Z,85.79
2022-10-15T18:39:56.922Z,85.56
2022-10-15T18:42:27.612Z,85.37
2022-10-15T18:44:58.283Z,85.14
2022-10-15T18:47:28.714Z,84.90
2022-10-15T18:50:00.092Z,84.66
2022-10-15T18:52:39.447Z,84.54
2022-10-15T18:55:03.602Z,84.57
2022-10-15T18:57:34.784Z,84.57
2022-10-15T19:00:06.248Z,84.49
2022-10-15T19:02:36.671Z,84.29
2022-10-15T19:05:08.691Z,84.25
2022-10-15T19:07:39.064Z,84.10
2022-10-15T19:10:09.919Z,84.11
2022-10-15T19:12:40.248Z,83.88
2022-10-15T19:15:11.594Z,84.11
2022-10-15T19:17:41.959Z,84.02
2022-10-15T19:20:12.507Z,84.09
2022-10-15T19:22:42.933Z,83.76
2022-10-15T19:25:13.479Z,83.71
2022-10-15T19:27:43.864Z,83.64
2022-10-15T19:30:15.766Z,83.25
2022-10-15T19:32:48.049Z,83.06
2022-10-15T19:35:18.466Z,82.96
2022-10-15T19:37:48.957Z,82.76
2022-10-15T19:40:19.262Z,82.46
2022-10-15T19:42:49.583Z,82.60
2022-10-15T19:45:19.939Z,82.47
2022-10-15T19:47:50.196Z,82.47
2022-10-15T19:50:20.601Z,82.27
2022-10-15T19:52:51.394Z,82.50
2022-10-15T19:55:22.572Z,82.34
2022-10-15T19:57:53.743Z,82.53
2022-10-15T20:00:24.165Z,82.60
2022-10-15T20:02:54.892Z,82.18
2022-10-15T20:05:25.359Z,82.30
2022-10-15T20:07:55.883Z,82.33
2022-10-15T20:10:26.650Z,82.45
2022-10-15T20:12:57.158Z,82.41
2022-10-15T20:15:27.464Z,82.43
2022-10-15T20:17:57.875Z,82.37
2022-10-15T20:20:28.307Z,82.06
2022-10-15T20:22:58.605Z,82.36
2022-10-15T20:25:29.218Z,82.18
2022-10-15T20:28:00.037Z,82.32
2022-10-15T20:30:30.561Z,82.47
2022-10-15T20:33:00.936Z,82.66
2022-10-15T20:35:34.116Z,83.01
2022-10-15T20:38:05.484Z,82.95
2022-10-15T20:40:38.196Z,83.16
2022-10-15T20:43:09.434Z,83.55
2022-10-15T20:45:42.844Z,83.77
2022-10-15T20:48:19.052Z,83.87
2022-10-15T20:50:51.409Z,83.62
2022-10-15T20:53:23.658Z,83.73
2022-10-15T20:55:54.011Z,83.86
2022-10-15T20:58:25.470Z,83.66
2022-10-15T21:00:55.948Z,83.50
2022-10-15T21:03:26.990Z,83.71
2022-10-15T21:05:57.463Z,83.50
2022-10-15T21:08:27.899Z,83.85
2022-10-15T21:11:05.997Z,83.70
2022-10-15T21:13:36.642Z,83.82
2022-10-15T21:16:08.502Z,83.92
2022-10-15T21:18:39.288Z,84.27
2022-10-15T21:21:12.210Z,84.00
2022-10-15T21:23:43.671Z,84.34
2022-10-15T21:26:16.904Z,84.37
2022-10-15T21:28:47.328Z,84.17
2022-10-15T21:31:18.772Z,84.24
2022-10-15T21:33:49.259Z,84.13
2022-10-15T21:36:26.174Z,84.37
2022-10-15T21:39:06.632Z,84.42
2022-10-15T21:41:38.764Z,84.33
2022-10-15T21:44:09.701Z,84.16
2022-10-15T21:46:43.582Z,84.20
2022-10-15T21:49:13.955Z,83.85
2022-10-15T21:51:44.334Z,83.98
2022-10-15T21:54:14.716Z,83.73
2022-10-15T21:56:45.459Z,83.85
2022-10-15T21:59:15.759Z,83.90
2022-10-15T22:01:46.134Z,83.86
2022-10-15T22:04:16.617Z,83.84
2022-10-15T22:06:46.972Z,83.82
2022-10-15T22:09:17.358Z,83.89
2022-10-15T22:11:47.733Z,83.85
2022-10-15T22:14:18.030Z,83.76
2022-10-15T22:16:48.423Z,83.40
2022-10-15T22:19:19.074Z,83.59
2022-10-15T22:21:49.520Z,83.66
2022-10-15T22:24:21.356Z,83.78
2022-10-15T22:26:53.807Z,83.77
2022-10-15T22:29:27.417Z,84.14
2022-10-15T22:31:58.739Z,84.13
2022-10-15T22:34:29.167Z,84.06
2022-10-15T22:36:59.590Z,83.91
2022-10-15T22:39:30.192Z,83.98
2022-10-15T22:42:00.542Z,83.96
2022-10-15T22:44:30.946Z,84.07
2022-10-15T22:47:01.338Z,84.37
2022-10-15T22:49:31.731Z,83.97
2022-10-15T22:52:02.069Z,84.05
2022-10-15T22:54:32.295Z,84.24
2022-10-15T22:57:02.717Z,84.19
2022-10-15T22:59:33.306Z,84.20
2022-10-15T23:02:04.212Z,84.28
2022-10-15T23:04:34.586Z,84.11
2022-10-15T23:07:05.175Z,84.07
2022-10-15T23:09:35.722Z,84.32
2022-10-15T23:12:06.232Z,84.21
2022-10-15T23:14:36.986Z,84.20
2022-10-15T23:17:07.305Z,84.30
2022-10-15T23:19:37.676Z,84.09
2022-10-15T23:22:09.927Z,83.75
2022-10-15T23:24:40.341Z,83.65
2022-10-15T23:27:11.034Z,83.73
2022-10-15T23:29:41.346Z,83.66
2022-10-15T23:32:11.950Z,83.76
2022-10-15T23:34:42.270Z,83.89
2022-10-15T23:37:12.634Z,84.07
2022-10-15T23:39:42.973Z,84.06
2022-10-15T23:42:13.469Z,84.09
2022-10-15T23:44:43.772Z,84.35
2022-10-15T23:47:14.173Z,84.27
2022-10-15T23:49:44.525Z,84.50
2022-10-15T23:52:15.131Z,84.51
2022-10-15T23:54:45.443Z,84.11
2022-10-15T23:57:15.835Z,84.22
2022-10-15T23:59:46.128Z,84.36
